sensor_id;sensor_type;location;lat;lon;timestamp;P1;durP1;ratioP1;P2;durP2;ratioP2
37087;SDS011;23002;52.676;6.432;2023-02-28T00:00:10;7.60;;;1.45;;
37087;SDS011;23002;52.676;6.432;2023-02-28T00:02:38;4.72;;;1.33;;
37087;SDS011;23002;52.676;6.432;2023-02-28T00:05:06;4.97;;;1.80;;
37087;SDS011;23002;52.676;6.432;2023-02-28T00:07:33;3.45;;;1.40;;
37087;SDS011;23002;52.676;6.432;2023-02-28T00:10:01;3.33;;;1.33;;
37087;SDS011;23002;52.676;6.432;2023-02-28T00:12:28;4.15;;;1.65;;
37087;SDS011;23002;52.676;6.432;2023-02-28T00:14:55;4.53;;;1.67;;
37087;SDS011;23002;52.676;6.432;2023-02-28T00:17:22;4.72;;;1.70;;
37087;SDS011;23002;52.676;6.432;2023-02-28T00:19:50;2.28;;;1.10;;
37087;SDS011;23002;52.676;6.432;2023-02-28T00:22:18;2.60;;;1.13;;
37087;SDS011;23002;52.676;6.432;2023-02-28T00:24:46;5.53;;;1.17;;
37087;SDS011;23002;52.676;6.432;2023-02-28T00:27:13;8.82;;;2.08;;
37087;SDS011;23002;52.676;6.432;2023-02-28T00:29:41;5.05;;;1.67;;
37087;SDS011;23002;52.676;6.432;2023-02-28T00:32:08;4.38;;;1.88;;
37087;SDS011;23002;52.676;6.432;2023-02-28T00:34:35;3.28;;;1.70;;
37087;SDS011;23002;52.676;6.432;2023-02-28T00:37:07;6.68;;;1.70;;
37087;SDS011;23002;52.676;6.432;2023-02-28T00:39:35;4.05;;;1.30;;
37087;SDS011;23002;52.676;6.432;2023-02-28T00:42:02;4.65;;;1.30;;
37087;SDS011;23002;52.676;6.432;2023-02-28T00:44:30;3.38;;;1.42;;
37087;SDS011;23002;52.676;6.432;2023-02-28T00:46:57;4.45;;;1.70;;
37087;SDS011;23002;52.676;6.432;2023-02-28T00:49:24;3.35;;;1.55;;
37087;SDS011;23002;52.676;6.432;2023-02-28T00:51:52;2.67;;;1.60;;
37087;SDS011;23002;52.676;6.432;2023-02-28T00:54:19;3.22;;;1.42;;
37087;SDS011;23002;52.676;6.432;2023-02-28T00:56:47;2.70;;;1.27;;
37087;SDS011;23002;52.676;6.432;2023-02-28T00:59:15;7.93;;;2.05;;
37087;SDS011;23002;52.676;6.432;2023-02-28T01:01:43;4.60;;;1.50;;
37087;SDS011;23002;52.676;6.432;2023-02-28T01:04:10;5.10;;;1.45;;
37087;SDS011;23002;52.676;6.432;2023-02-28T01:06:37;3.30;;;1.70;;
37087;SDS011;23002;52.676;6.432;2023-02-28T01:09:05;3.95;;;1.70;;
37087;SDS011;23002;52.676;6.432;2023-02-28T01:11:32;4.45;;;1.55;;
37087;SDS011;23002;52.676;6.432;2023-02-28T01:14:00;6.00;;;1.63;;
37087;SDS011;23002;52.676;6.432;2023-02-28T01:16:28;5.03;;;1.58;;
37087;SDS011;23002;52.676;6.432;2023-02-28T01:18:55;5.07;;;1.85;;
37087;SDS011;23002;52.676;6.432;2023-02-28T01:21:22;6.32;;;2.30;;
37087;SDS011;23002;52.676;6.432;2023-02-28T01:23:50;3.28;;;1.40;;
37087;SDS011;23002;52.676;6.432;2023-02-28T01:26:21;6.20;;;1.58;;
37087;SDS011;23002;52.676;6.432;2023-02-28T01:28:49;3.90;;;1.50;;
37087;SDS011;23002;52.676;6.432;2023-02-28T01:31:17;3.55;;;1.42;;
37087;SDS011;23002;52.676;6.432;2023-02-28T01:33:44;4.22;;;1.38;;
37087;SDS011;23002;52.676;6.432;2023-02-28T01:36:15;4.20;;;1.92;;
37087;SDS011;23002;52.676;6.432;2023-02-28T01:38:43;5.03;;;1.63;;
37087;SDS011;23002;52.676;6.432;2023-02-28T01:41:15;6.95;;;2.00;;
37087;SDS011;23002;52.676;6.432;2023-02-28T01:46:10;4.40;;;2.15;;
37087;SDS011;23002;52.676;6.432;2023-02-28T01:48:38;5.15;;;2.28;;
37087;SDS011;23002;52.676;6.432;2023-02-28T01:51:17;6.60;;;2.60;;
37087;SDS011;23002;52.676;6.432;2023-02-28T01:53:56;6.63;;;1.63;;
37087;SDS011;23002;52.676;6.432;2023-02-28T01:56:26;5.43;;;1.92;;
37087;SDS011;23002;52.676;6.432;2023-02-28T01:58:55;15.75;;;2.45;;
37087;SDS011;23002;52.676;6.432;2023-02-28T02:01:22;4.28;;;2.00;;
37087;SDS011;23002;52.676;6.432;2023-02-28T02:03:54;4.45;;;2.33;;
37087;SDS011;23002;52.676;6.432;2023-02-28T02:06:22;10.90;;;2.30;;
37087;SDS011;23002;52.676;6.432;2023-02-28T02:08:50;8.27;;;2.65;;
37087;SDS011;23002;52.676;6.432;2023-02-28T02:11:19;5.88;;;2.35;;
37087;SDS011;23002;52.676;6.432;2023-02-28T02:26:55;5.32;;;2.53;;
37087;SDS011;23002;52.676;6.432;2023-02-28T02:32:14;6.53;;;2.78;;
37087;SDS011;23002;52.676;6.432;2023-02-28T02:40:02;9.30;;;4.10;;
37087;SDS011;23002;52.676;6.432;2023-02-28T02:45:59;12.27;;;3.42;;
37087;SDS011;23002;52.676;6.432;2023-02-28T02:48:08;8.45;;;3.50;;
37087;SDS011;23002;52.676;6.432;2023-02-28T02:50:38;7.90;;;3.30;;
37087;SDS011;23002;52.676;6.432;2023-02-28T02:53:07;15.60;;;5.32;;
37087;SDS011;23002;52.676;6.432;2023-02-28T02:55:37;9.07;;;3.65;;
37087;SDS011;23002;52.676;6.432;2023-02-28T02:58:07;10.70;;;3.93;;
37087;SDS011;23002;52.676;6.432;2023-02-28T03:00:39;10.73;;;3.60;;
37087;SDS011;23002;52.676;6.432;2023-02-28T03:03:09;12.30;;;4.15;;
37087;SDS011;23002;52.676;6.432;2023-02-28T03:05:50;9.40;;;3.83;;
37087;SDS011;23002;52.676;6.432;2023-02-28T03:08:17;11.00;;;4.20;;
37087;SDS011;23002;52.676;6.432;2023-02-28T03:10:45;7.43;;;3.92;;
37087;SDS011;23002;52.676;6.432;2023-02-28T03:24:17;8.65;;;3.80;;
37087;SDS011;23002;52.676;6.432;2023-02-28T03:26:47;10.63;;;4.45;;
37087;SDS011;23002;52.676;6.432;2023-02-28T03:34:54;10.00;;;4.47;;
37087;SDS011;23002;52.676;6.432;2023-02-28T03:37:23;10.70;;;4.60;;
37087;SDS011;23002;52.676;6.432;2023-02-28T03:39:54;10.68;;;4.13;;
37087;SDS011;23002;52.676;6.432;2023-02-28T03:42:29;14.18;;;5.15;;
37087;SDS011;23002;52.676;6.432;2023-02-28T03:44:59;10.07;;;4.40;;
37087;SDS011;23002;52.676;6.432;2023-02-28T03:47:39;12.93;;;5.47;;
37087;SDS011;23002;52.676;6.432;2023-02-28T03:52:39;11.45;;;4.88;;
37087;SDS011;23002;52.676;6.432;2023-02-28T03:55:11;10.85;;;4.50;;
37087;SDS011;23002;52.676;6.432;2023-02-28T04:00:11;10.32;;;4.55;;
37087;SDS011;23002;52.676;6.432;2023-02-28T04:02:40;9.02;;;4.75;;
37087;SDS011;23002;52.676;6.432;2023-02-28T04:05:07;12.30;;;5.60;;
37087;SDS011;23002;52.676;6.432;2023-02-28T04:07:35;9.45;;;4.97;;
37087;SDS011;23002;52.676;6.432;2023-02-28T04:10:03;10.27;;;4.68;;
37087;SDS011;23002;52.676;6.432;2023-02-28T04:12:30;12.02;;;4.72;;
37087;SDS011;23002;52.676;6.432;2023-02-28T04:14:57;14.00;;;4.80;;
37087;SDS011;23002;52.676;6.432;2023-02-28T04:17:24;12.35;;;5.05;;
37087;SDS011;23002;52.676;6.432;2023-02-28T04:19:51;9.52;;;4.07;;
37087;SDS011;23002;52.676;6.432;2023-02-28T04:22:20;9.85;;;4.57;;
37087;SDS011;23002;52.676;6.432;2023-02-28T04:24:47;14.77;;;5.43;;
37087;SDS011;23002;52.676;6.432;2023-02-28T04:27:14;10.23;;;4.80;;
37087;SDS011;23002;52.676;6.432;2023-02-28T04:29:41;15.43;;;5.32;;
37087;SDS011;23002;52.676;6.432;2023-02-28T04:32:10;12.05;;;4.47;;
37087;SDS011;23002;52.676;6.432;2023-02-28T04:34:38;11.02;;;4.68;;
37087;SDS011;23002;52.676;6.432;2023-02-28T04:37:05;10.93;;;5.00;;
37087;SDS011;23002;52.676;6.432;2023-02-28T04:39:40;14.10;;;5.35;;
37087;SDS011;23002;52.676;6.432;2023-02-28T04:42:07;9.85;;;5.45;;
37087;SDS011;23002;52.676;6.432;2023-02-28T04:44:35;11.52;;;4.93;;
37087;SDS011;23002;52.676;6.432;2023-02-28T04:47:02;13.32;;;4.80;;
37087;SDS011;23002;52.676;6.432;2023-02-28T04:49:29;12.55;;;4.72;;
37087;SDS011;23002;52.676;6.432;2023-02-28T04:51:56;11.63;;;5.32;;
37087;SDS011;23002;52.676;6.432;2023-02-28T04:54:23;13.18;;;5.30;;
37087;SDS011;23002;52.676;6.432;2023-02-28T04:56:50;12.55;;;5.18;;
37087;SDS011;23002;52.676;6.432;2023-02-28T04:59:17;10.32;;;4.47;;
37087;SDS011;23002;52.676;6.432;2023-02-28T05:01:45;10.13;;;4.72;;
37087;SDS011;23002;52.676;6.432;2023-02-28T05:04:13;11.40;;;4.55;;
37087;SDS011;23002;52.676;6.432;2023-02-28T05:06:40;13.18;;;5.13;;
37087;SDS011;23002;52.676;6.432;2023-02-28T05:09:07;13.10;;;5.03;;
37087;SDS011;23002;52.676;6.432;2023-02-28T05:11:34;9.85;;;4.65;;
37087;SDS011;23002;52.676;6.432;2023-02-28T05:14:06;11.40;;;4.93;;
37087;SDS011;23002;52.676;6.432;2023-02-28T05:16:34;11.55;;;5.55;;
37087;SDS011;23002;52.676;6.432;2023-02-28T05:19:01;11.63;;;5.47;;
37087;SDS011;23002;52.676;6.432;2023-02-28T05:21:35;13.25;;;5.97;;
37087;SDS011;23002;52.676;6.432;2023-02-28T05:24:04;9.73;;;5.18;;
37087;SDS011;23002;52.676;6.432;2023-02-28T05:26:34;9.10;;;4.22;;
37087;SDS011;23002;52.676;6.432;2023-02-28T05:29:01;15.82;;;5.90;;
37087;SDS011;23002;52.676;6.432;2023-02-28T05:31:28;12.90;;;4.78;;
37087;SDS011;23002;52.676;6.432;2023-02-28T05:33:56;11.82;;;5.63;;
37087;SDS011;23002;52.676;6.432;2023-02-28T05:36:23;10.35;;;4.88;;
37087;SDS011;23002;52.676;6.432;2023-02-28T05:38:50;14.45;;;4.80;;
37087;SDS011;23002;52.676;6.432;2023-02-28T05:41:18;13.18;;;4.93;;
37087;SDS011;23002;52.676;6.432;2023-02-28T05:43:46;15.27;;;5.72;;
37087;SDS011;23002;52.676;6.432;2023-02-28T05:46:13;16.88;;;5.20;;
37087;SDS011;23002;52.676;6.432;2023-02-28T05:48:41;15.02;;;5.18;;
37087;SDS011;23002;52.676;6.432;2023-02-28T05:51:08;14.55;;;6.88;;
37087;SDS011;23002;52.676;6.432;2023-02-28T05:53:36;10.38;;;5.07;;
37087;SDS011;23002;52.676;6.432;2023-02-28T05:56:03;11.32;;;5.03;;
37087;SDS011;23002;52.676;6.432;2023-02-28T05:58:31;12.13;;;4.97;;
37087;SDS011;23002;52.676;6.432;2023-02-28T06:00:58;9.35;;;4.38;;
37087;SDS011;23002;52.676;6.432;2023-02-28T06:03:26;13.38;;;5.28;;
37087;SDS011;23002;52.676;6.432;2023-02-28T06:05:53;14.45;;;5.32;;
37087;SDS011;23002;52.676;6.432;2023-02-28T06:08:20;12.43;;;5.10;;
37087;SDS011;23002;52.676;6.432;2023-02-28T06:10:47;9.32;;;5.03;;
37087;SDS011;23002;52.676;6.432;2023-02-28T06:13:15;10.13;;;4.88;;
37087;SDS011;23002;52.676;6.432;2023-02-28T06:15:42;14.02;;;4.93;;
37087;SDS011;23002;52.676;6.432;2023-02-28T06:18:09;11.20;;;5.32;;
37087;SDS011;23002;52.676;6.432;2023-02-28T06:20:36;12.07;;;5.22;;
37087;SDS011;23002;52.676;6.432;2023-02-28T06:23:03;12.70;;;5.40;;
37087;SDS011;23002;52.676;6.432;2023-02-28T06:25:31;11.68;;;5.70;;
37087;SDS011;23002;52.676;6.432;2023-02-28T06:27:58;18.98;;;8.95;;
37087;SDS011;23002;52.676;6.432;2023-02-28T06:30:25;20.45;;;8.05;;
37087;SDS011;23002;52.676;6.432;2023-02-28T06:32:56;13.20;;;6.78;;
37087;SDS011;23002;52.676;6.432;2023-02-28T06:35:23;16.30;;;7.60;;
37087;SDS011;23002;52.676;6.432;2023-02-28T06:37:50;15.93;;;7.35;;
37087;SDS011;23002;52.676;6.432;2023-02-28T06:40:18;13.32;;;6.30;;
37087;SDS011;23002;52.676;6.432;2023-02-28T06:42:45;14.60;;;6.22;;
37087;SDS011;23002;52.676;6.432;2023-02-28T06:45:12;26.83;;;11.80;;
37087;SDS011;23002;52.676;6.432;2023-02-28T06:47:40;14.98;;;7.47;;
37087;SDS011;23002;52.676;6.432;2023-02-28T06:50:08;15.18;;;6.35;;
37087;SDS011;23002;52.676;6.432;2023-02-28T06:52:36;14.25;;;6.03;;
37087;SDS011;23002;52.676;6.432;2023-02-28T06:55:04;11.43;;;5.57;;
37087;SDS011;23002;52.676;6.432;2023-02-28T06:57:32;14.38;;;6.00;;
37087;SDS011;23002;52.676;6.432;2023-02-28T07:00:00;13.27;;;7.00;;
37087;SDS011;23002;52.676;6.432;2023-02-28T07:02:27;10.50;;;5.95;;
37087;SDS011;23002;52.676;6.432;2023-02-28T07:04:54;17.17;;;6.88;;
37087;SDS011;23002;52.676;6.432;2023-02-28T07:07:22;12.55;;;5.55;;
37087;SDS011;23002;52.676;6.432;2023-02-28T07:09:49;13.32;;;5.78;;
37087;SDS011;23002;52.676;6.432;2023-02-28T07:12:16;10.77;;;5.60;;
37087;SDS011;23002;52.676;6.432;2023-02-28T07:14:43;11.05;;;5.35;;
37087;SDS011;23002;52.676;6.432;2023-02-28T07:17:11;12.15;;;5.22;;
37087;SDS011;23002;52.676;6.432;2023-02-28T07:19:38;13.75;;;5.75;;
37087;SDS011;23002;52.676;6.432;2023-02-28T07:22:06;8.63;;;5.30;;
37087;SDS011;23002;52.676;6.432;2023-02-28T07:24:33;11.90;;;5.35;;
37087;SDS011;23002;52.676;6.432;2023-02-28T07:27:00;14.52;;;6.47;;
37087;SDS011;23002;52.676;6.432;2023-02-28T07:29:28;13.40;;;5.72;;
37087;SDS011;23002;52.676;6.432;2023-02-28T07:31:55;12.25;;;5.25;;
37087;SDS011;23002;52.676;6.432;2023-02-28T07:34:22;10.90;;;4.90;;
37087;SDS011;23002;52.676;6.432;2023-02-28T07:36:52;11.30;;;6.53;;
37087;SDS011;23002;52.676;6.432;2023-02-28T07:39:20;10.95;;;4.93;;
37087;SDS011;23002;52.676;6.432;2023-02-28T07:41:47;12.68;;;5.47;;
37087;SDS011;23002;52.676;6.432;2023-02-28T07:44:14;9.18;;;4.95;;
37087;SDS011;23002;52.676;6.432;2023-02-28T07:46:41;12.75;;;4.32;;
37087;SDS011;23002;52.676;6.432;2023-02-28T07:49:09;12.68;;;5.18;;
37087;SDS011;23002;52.676;6.432;2023-02-28T07:51:36;9.43;;;4.22;;
37087;SDS011;23002;52.676;6.432;2023-02-28T07:54:03;19.80;;;7.75;;
37087;SDS011;23002;52.676;6.432;2023-02-28T07:56:30;15.45;;;6.28;;
37087;SDS011;23002;52.676;6.432;2023-02-28T07:58:58;10.60;;;5.18;;
37087;SDS011;23002;52.676;6.432;2023-02-28T08:01:25;12.55;;;5.30;;
37087;SDS011;23002;52.676;6.432;2023-02-28T08:03:52;13.32;;;7.30;;
37087;SDS011;23002;52.676;6.432;2023-02-28T08:06:21;7.40;;;4.18;;
37087;SDS011;23002;52.676;6.432;2023-02-28T08:08:49;8.93;;;3.65;;
37087;SDS011;23002;52.676;6.432;2023-02-28T08:11:16;10.30;;;4.50;;
37087;SDS011;23002;52.676;6.432;2023-02-28T08:13:44;10.07;;;4.10;;
37087;SDS011;23002;52.676;6.432;2023-02-28T08:16:12;7.30;;;3.63;;
37087;SDS011;23002;52.676;6.432;2023-02-28T08:18:48;7.53;;;4.15;;
37087;SDS011;23002;52.676;6.432;2023-02-28T08:21:16;9.43;;;4.35;;
37087;SDS011;23002;52.676;6.432;2023-02-28T08:23:43;6.80;;;3.42;;
37087;SDS011;23002;52.676;6.432;2023-02-28T08:26:10;6.20;;;3.03;;
37087;SDS011;23002;52.676;6.432;2023-02-28T08:28:37;4.60;;;2.50;;
37087;SDS011;23002;52.676;6.432;2023-02-28T08:31:09;5.88;;;2.40;;
37087;SDS011;23002;52.676;6.432;2023-02-28T08:33:37;3.65;;;2.17;;
37087;SDS011;23002;52.676;6.432;2023-02-28T08:36:05;4.35;;;2.20;;
37087;SDS011;23002;52.676;6.432;2023-02-28T08:38:32;5.70;;;2.97;;
37087;SDS011;23002;52.676;6.432;2023-02-28T08:41:00;4.55;;;2.10;;
37087;SDS011;23002;52.676;6.432;2023-02-28T08:43:28;2.88;;;1.60;;
37087;SDS011;23002;52.676;6.432;2023-02-28T08:45:55;3.60;;;1.67;;
37087;SDS011;23002;52.676;6.432;2023-02-28T08:48:23;4.35;;;1.80;;
37087;SDS011;23002;52.676;6.432;2023-02-28T08:56:00;4.07;;;1.77;;
37087;SDS011;23002;52.676;6.432;2023-02-28T08:58:28;2.45;;;1.52;;
37087;SDS011;23002;52.676;6.432;2023-02-28T09:00:55;5.18;;;2.10;;
37087;SDS011;23002;52.676;6.432;2023-02-28T09:03:23;4.90;;;2.47;;
37087;SDS011;23002;52.676;6.432;2023-02-28T09:05:58;4.13;;;2.40;;
37087;SDS011;23002;52.676;6.432;2023-02-28T09:08:25;5.20;;;2.15;;
37087;SDS011;23002;52.676;6.432;2023-02-28T09:10:53;6.07;;;2.40;;
37087;SDS011;23002;52.676;6.432;2023-02-28T09:13:20;5.72;;;2.20;;
37087;SDS011;23002;52.676;6.432;2023-02-28T09:15:47;3.92;;;2.38;;
37087;SDS011;23002;52.676;6.432;2023-02-28T09:18:15;4.00;;;2.05;;
37087;SDS011;23002;52.676;6.432;2023-02-28T09:20:42;5.28;;;2.05;;
37087;SDS011;23002;52.676;6.432;2023-02-28T09:23:10;4.15;;;2.30;;
37087;SDS011;23002;52.676;6.432;2023-02-28T09:25:38;4.05;;;2.10;;
37087;SDS011;23002;52.676;6.432;2023-02-28T09:28:11;5.78;;;2.50;;
37087;SDS011;23002;52.676;6.432;2023-02-28T09:30:38;2.80;;;1.60;;
37087;SDS011;23002;52.676;6.432;2023-02-28T09:33:05;5.15;;;1.60;;
37087;SDS011;23002;52.676;6.432;2023-02-28T09:35:32;2.50;;;1.38;;
37087;SDS011;23002;52.676;6.432;2023-02-28T09:37:59;3.80;;;1.75;;
37087;SDS011;23002;52.676;6.432;2023-02-28T09:40:29;2.58;;;1.40;;
37087;SDS011;23002;52.676;6.432;2023-02-28T09:42:57;1.73;;;0.75;;
37087;SDS011;23002;52.676;6.432;2023-02-28T09:45:30;1.10;;;0.70;;
37087;SDS011;23002;52.676;6.432;2023-02-28T09:47:59;3.05;;;0.93;;
37087;SDS011;23002;52.676;6.432;2023-02-28T09:50:33;4.35;;;0.93;;
37087;SDS011;23002;52.676;6.432;2023-02-28T09:53:03;3.25;;;1.33;;
37087;SDS011;23002;52.676;6.432;2023-02-28T09:55:33;2.13;;;1.20;;
37087;SDS011;23002;52.676;6.432;2023-02-28T09:58:18;9.50;;;1.52;;
37087;SDS011;23002;52.676;6.432;2023-02-28T10:00:47;4.10;;;1.27;;
37087;SDS011;23002;52.676;6.432;2023-02-28T10:03:31;3.35;;;1.20;;
37087;SDS011;23002;52.676;6.432;2023-02-28T10:06:03;2.90;;;1.17;;
37087;SDS011;23002;52.676;6.432;2023-02-28T10:11:00;1.95;;;1.13;;
37087;SDS011;23002;52.676;6.432;2023-02-28T10:15:56;2.08;;;1.48;;
37087;SDS011;23002;52.676;6.432;2023-02-28T10:18:27;1.83;;;1.20;;
37087;SDS011;23002;52.676;6.432;2023-02-28T10:20:56;2.58;;;1.45;;
37087;SDS011;23002;52.676;6.432;2023-02-28T10:23:25;2.53;;;1.30;;
37087;SDS011;23002;52.676;6.432;2023-02-28T10:26:16;1.80;;;1.10;;
37087;SDS011;23002;52.676;6.432;2023-02-28T10:28:42;3.60;;;1.80;;
37087;SDS011;23002;52.676;6.432;2023-02-28T10:31:19;2.72;;;1.25;;
37087;SDS011;23002;52.676;6.432;2023-02-28T10:33:46;2.88;;;1.08;;
37087;SDS011;23002;52.676;6.432;2023-02-28T10:36:15;3.55;;;1.30;;
37087;SDS011;23002;52.676;6.432;2023-02-28T10:38:43;2.15;;;1.05;;
37087;SDS011;23002;52.676;6.432;2023-02-28T10:41:12;2.47;;;1.17;;
37087;SDS011;23002;52.676;6.432;2023-02-28T10:43:41;2.20;;;1.10;;
37087;SDS011;23002;52.676;6.432;2023-02-28T10:48:42;7.10;;;1.13;;
37087;SDS011;23002;52.676;6.432;2023-02-28T10:51:14;1.55;;;1.10;;
37087;SDS011;23002;52.676;6.432;2023-02-28T10:53:51;3.10;;;0.90;;
37087;SDS011;23002;52.676;6.432;2023-02-28T10:56:28;2.85;;;0.80;;
37087;SDS011;23002;52.676;6.432;2023-02-28T11:01:43;1.52;;;0.80;;
37087;SDS011;23002;52.676;6.432;2023-02-28T11:06:59;2.30;;;1.05;;
37087;SDS011;23002;52.676;6.432;2023-02-28T11:09:34;2.88;;;1.40;;
37087;SDS011;23002;52.676;6.432;2023-02-28T11:12:02;1.60;;;1.00;;
37087;SDS011;23002;52.676;6.432;2023-02-28T11:14:32;1.90;;;1.00;;
37087;SDS011;23002;52.676;6.432;2023-02-28T11:17:10;2.38;;;1.00;;
37087;SDS011;23002;52.676;6.432;2023-02-28T11:19:39;2.55;;;1.20;;
37087;SDS011;23002;52.676;6.432;2023-02-28T11:22:07;2.17;;;1.10;;
37087;SDS011;23002;52.676;6.432;2023-02-28T11:24:36;2.25;;;1.10;;
37087;SDS011;23002;52.676;6.432;2023-02-28T11:27:04;2.05;;;1.00;;
37087;SDS011;23002;52.676;6.432;2023-02-28T11:29:31;1.92;;;1.08;;
37087;SDS011;23002;52.676;6.432;2023-02-28T11:34:28;1.67;;;0.88;;
37087;SDS011;23002;52.676;6.432;2023-02-28T11:36:56;3.38;;;0.80;;
37087;SDS011;23002;52.676;6.432;2023-02-28T11:39:24;1.88;;;0.88;;
37087;SDS011;23002;52.676;6.432;2023-02-28T11:47:04;1.50;;;1.08;;
37087;SDS011;23002;52.676;6.432;2023-02-28T11:49:38;1.70;;;0.90;;
37087;SDS011;23002;52.676;6.432;2023-02-28T11:52:15;1.33;;;0.95;;
37087;SDS011;23002;52.676;6.432;2023-02-28T12:10:20;2.15;;;0.90;;
37087;SDS011;23002;52.676;6.432;2023-02-28T12:13:01;3.78;;;1.02;;
37087;SDS011;23002;52.676;6.432;2023-02-28T12:15:37;2.22;;;1.00;;
37087;SDS011;23002;52.676;6.432;2023-02-28T12:18:13;1.23;;;0.98;;
37087;SDS011;23002;52.676;6.432;2023-02-28T12:21:20;2.08;;;0.85;;
37087;SDS011;23002;52.676;6.432;2023-02-28T12:26:19;1.17;;;0.75;;
37087;SDS011;23002;52.676;6.432;2023-02-28T12:28:53;1.65;;;0.80;;
37087;SDS011;23002;52.676;6.432;2023-02-28T12:31:22;0.85;;;0.70;;
37087;SDS011;23002;52.676;6.432;2023-02-28T12:33:51;0.95;;;0.73;;
37087;SDS011;23002;52.676;6.432;2023-02-28T12:36:19;2.33;;;1.08;;
37087;SDS011;23002;52.676;6.432;2023-02-28T12:38:53;1.65;;;0.95;;
37087;SDS011;23002;52.676;6.432;2023-02-28T12:41:24;1.00;;;0.77;;
37087;SDS011;23002;52.676;6.432;2023-02-28T12:44:08;1.33;;;0.80;;
37087;SDS011;23002;52.676;6.432;2023-02-28T12:46:44;1.73;;;1.27;;
37087;SDS011;23002;52.676;6.432;2023-02-28T12:49:19;2.30;;;1.10;;
37087;SDS011;23002;52.676;6.432;2023-02-28T12:51:48;3.60;;;0.85;;
37087;SDS011;23002;52.676;6.432;2023-02-28T12:54:23;3.22;;;1.02;;
37087;SDS011;23002;52.676;6.432;2023-02-28T12:59:39;2.15;;;0.95;;
37087;SDS011;23002;52.676;6.432;2023-02-28T13:07:29;3.70;;;1.10;;
37087;SDS011;23002;52.676;6.432;2023-02-28T13:09:58;3.55;;;1.20;;
37087;SDS011;23002;52.676;6.432;2023-02-28T13:12:26;5.10;;;2.25;;
37087;SDS011;23002;52.676;6.432;2023-02-28T13:17:41;3.17;;;1.08;;
37087;SDS011;23002;52.676;6.432;2023-02-28T13:20:18;2.17;;;1.15;;
37087;SDS011;23002;52.676;6.432;2023-02-28T13:22:47;1.48;;;0.90;;
37087;SDS011;23002;52.676;6.432;2023-02-28T13:28:03;2.00;;;1.27;;
37087;SDS011;23002;52.676;6.432;2023-02-28T13:35:50;3.50;;;1.30;;
37087;SDS011;23002;52.676;6.432;2023-02-28T13:38:34;2.10;;;1.13;;
37087;SDS011;23002;52.676;6.432;2023-02-28T13:56:59;2.00;;;1.23;;
37087;SDS011;23002;52.676;6.432;2023-02-28T13:59:39;1.75;;;1.02;;
37087;SDS011;23002;52.676;6.432;2023-02-28T14:07:19;2.58;;;1.17;;
37087;SDS011;23002;52.676;6.432;2023-02-28T14:09:54;2.78;;;1.10;;
37087;SDS011;23002;52.676;6.432;2023-02-28T14:17:55;3.28;;;1.80;;
37087;SDS011;23002;52.676;6.432;2023-02-28T14:20:22;3.92;;;1.23;;
37087;SDS011;23002;52.676;6.432;2023-02-28T14:22:54;2.40;;;1.33;;
37087;SDS011;23002;52.676;6.432;2023-02-28T14:25:40;1.88;;;1.10;;
37087;SDS011;23002;52.676;6.432;2023-02-28T14:30:48;5.38;;;1.60;;
37087;SDS011;23002;52.676;6.432;2023-02-28T14:36:01;3.08;;;1.23;;
37087;SDS011;23002;52.676;6.432;2023-02-28T14:38:30;2.25;;;1.35;;
37087;SDS011;23002;52.676;6.432;2023-02-28T14:41:00;2.55;;;1.42;;
37087;SDS011;23002;52.676;6.432;2023-02-28T14:43:29;3.67;;;1.60;;
37087;SDS011;23002;52.676;6.432;2023-02-28T14:45:58;3.10;;;1.48;;
37087;SDS011;23002;52.676;6.432;2023-02-28T14:48:26;2.58;;;1.17;;
37087;SDS011;23002;52.676;6.432;2023-02-28T14:50:55;2.83;;;1.83;;
37087;SDS011;23002;52.676;6.432;2023-02-28T14:53:23;3.83;;;1.55;;
37087;SDS011;23002;52.676;6.432;2023-02-28T14:55:51;2.17;;;1.20;;
37087;SDS011;23002;52.676;6.432;2023-02-28T14:58:21;2.90;;;1.15;;
37087;SDS011;23002;52.676;6.432;2023-02-28T15:00:49;2.60;;;1.30;;
37087;SDS011;23002;52.676;6.432;2023-02-28T15:03:18;2.42;;;1.27;;
37087;SDS011;23002;52.676;6.432;2023-02-28T15:05:53;3.55;;;1.30;;
37087;SDS011;23002;52.676;6.432;2023-02-28T15:08:20;2.33;;;1.17;;
37087;SDS011;23002;52.676;6.432;2023-02-28T15:11:01;2.05;;;1.38;;
37087;SDS011;23002;52.676;6.432;2023-02-28T15:13:39;3.47;;;1.27;;
37087;SDS011;23002;52.676;6.432;2023-02-28T15:16:13;4.53;;;1.45;;
37087;SDS011;23002;52.676;6.432;2023-02-28T15:18:47;3.67;;;1.15;;
37087;SDS011;23002;52.676;6.432;2023-02-28T15:21:15;4.32;;;1.50;;
37087;SDS011;23002;52.676;6.432;2023-02-28T15:23:46;5.70;;;1.73;;
37087;SDS011;23002;52.676;6.432;2023-02-28T15:26:14;3.90;;;1.45;;
37087;SDS011;23002;52.676;6.432;2023-02-28T15:28:43;6.53;;;3.20;;
37087;SDS011;23002;52.676;6.432;2023-02-28T15:31:32;4.65;;;2.05;;
37087;SDS011;23002;52.676;6.432;2023-02-28T15:34:18;9.52;;;6.25;;
37087;SDS011;23002;52.676;6.432;2023-02-28T15:36:47;2.95;;;1.80;;
37087;SDS011;23002;52.676;6.432;2023-02-28T15:39:21;2.75;;;1.63;;
37087;SDS011;23002;52.676;6.432;2023-02-28T15:41:49;3.58;;;1.58;;
37087;SDS011;23002;52.676;6.432;2023-02-28T15:44:23;4.72;;;1.80;;
37087;SDS011;23002;52.676;6.432;2023-02-28T15:49:25;3.15;;;1.40;;
37087;SDS011;23002;52.676;6.432;2023-02-28T15:51:53;2.30;;;1.40;;
37087;SDS011;23002;52.676;6.432;2023-02-28T15:54:24;2.85;;;1.38;;
37087;SDS011;23002;52.676;6.432;2023-02-28T15:56:54;4.25;;;1.50;;
37087;SDS011;23002;52.676;6.432;2023-02-28T15:59:28;3.33;;;1.40;;
37087;SDS011;23002;52.676;6.432;2023-02-28T16:04:36;3.83;;;1.55;;
37087;SDS011;23002;52.676;6.432;2023-02-28T16:07:04;7.03;;;1.75;;
37087;SDS011;23002;52.676;6.432;2023-02-28T16:09:32;2.08;;;1.40;;
37087;SDS011;23002;52.676;6.432;2023-02-28T16:12:01;2.30;;;1.30;;
37087;SDS011;23002;52.676;6.432;2023-02-28T16:14:29;2.05;;;1.45;;
37087;SDS011;23002;52.676;6.432;2023-02-28T16:17:01;3.78;;;1.38;;
37087;SDS011;23002;52.676;6.432;2023-02-28T16:19:28;3.08;;;1.55;;
37087;SDS011;23002;52.676;6.432;2023-02-28T16:21:59;2.45;;;1.42;;
37087;SDS011;23002;52.676;6.432;2023-02-28T16:24:27;1.88;;;1.45;;
37087;SDS011;23002;52.676;6.432;2023-02-28T16:26:54;2.65;;;1.40;;
37087;SDS011;23002;52.676;6.432;2023-02-28T16:29:26;2.80;;;1.83;;
37087;SDS011;23002;52.676;6.432;2023-02-28T16:31:55;4.35;;;1.50;;
37087;SDS011;23002;52.676;6.432;2023-02-28T16:34:23;6.30;;;1.60;;
37087;SDS011;23002;52.676;6.432;2023-02-28T16:36:50;3.03;;;1.58;;
37087;SDS011;23002;52.676;6.432;2023-02-28T16:39:18;3.90;;;1.95;;
37087;SDS011;23002;52.676;6.432;2023-02-28T16:41:47;4.07;;;1.80;;
37087;SDS011;23002;52.676;6.432;2023-02-28T16:44:26;3.60;;;1.80;;
37087;SDS011;23002;52.676;6.432;2023-02-28T16:46:55;3.58;;;1.77;;
37087;SDS011;23002;52.676;6.432;2023-02-28T16:49:23;2.30;;;1.55;;
37087;SDS011;23002;52.676;6.432;2023-02-28T16:51:50;2.85;;;1.70;;
37087;SDS011;23002;52.676;6.432;2023-02-28T16:54:18;4.78;;;1.52;;
37087;SDS011;23002;52.676;6.432;2023-02-28T16:56:46;2.30;;;1.60;;
37087;SDS011;23002;52.676;6.432;2023-02-28T16:59:13;2.85;;;1.73;;
37087;SDS011;23002;52.676;6.432;2023-02-28T17:01:44;2.58;;;1.98;;
37087;SDS011;23002;52.676;6.432;2023-02-28T17:04:11;5.63;;;2.10;;
37087;SDS011;23002;52.676;6.432;2023-02-28T17:06:39;4.60;;;1.65;;
37087;SDS011;23002;52.676;6.432;2023-02-28T17:09:25;4.50;;;2.03;;
37087;SDS011;23002;52.676;6.432;2023-02-28T17:12:06;6.47;;;3.30;;
37087;SDS011;23002;52.676;6.432;2023-02-28T17:14:34;9.30;;;3.80;;
37087;SDS011;23002;52.676;6.432;2023-02-28T17:17:01;11.15;;;4.63;;
37087;SDS011;23002;52.676;6.432;2023-02-28T17:19:28;10.30;;;3.90;;
37087;SDS011;23002;52.676;6.432;2023-02-28T17:21:56;23.42;;;9.65;;
37087;SDS011;23002;52.676;6.432;2023-02-28T17:24:23;22.27;;;9.27;;